sensor_id;sensor_type;location;lat;lon;timestamp;temperature;humidity
15239;DHT22;7722;53.274;9.500;2023-04-25T00:00:06;7.30;99.90
15239;DHT22;7722;53.274;9.500;2023-04-25T00:02:34;7.30;99.90
15239;DHT22;7722;53.274;9.500;2023-04-25T00:05:01;7.20;99.90
15239;DHT22;7722;53.274;9.500;2023-04-25T00:07:29;7.10;99.90
15239;DHT22;7722;53.274;9.500;2023-04-25T00:09:56;7.00;99.90
15239;DHT22;7722;53.274;9.500;2023-04-25T00:12:23;6.90;99.90
15239;DHT22;7722;53.274;9.500;2023-04-25T00:14:52;6.80;99.90
15239;DHT22;7722;53.274;9.500;2023-04-25T00:17:19;6.80;99.90
15239;DHT22;7722;53.274;9.500;2023-04-25T00:19:47;6.90;99.90
15239;DHT22;7722;53.274;9.500;2023-04-25T00:22:15;6.80;99.90
15239;DHT22;7722;53.274;9.500;2023-04-25T00:24:43;6.80;99.90
15239;DHT22;7722;53.274;9.500;2023-04-25T00:27:09;6.80;99.90
15239;DHT22;7722;53.274;9.500;2023-04-25T00:29:36;6.80;99.90
15239;DHT22;7722;53.274;9.500;2023-04-25T00:32:05;6.70;99.90
15239;DHT22;7722;53.274;9.500;2023-04-25T00:34:32;6.80;99.90
15239;DHT22;7722;53.274;9.500;2023-04-25T00:37:00;6.70;99.90
15239;DHT22;7722;53.274;9.500;2023-04-25T00:39:28;6.70;99.90
15239;DHT22;7722;53.274;9.500;2023-04-25T00:41:55;6.60;99.90
15239;DHT22;7722;53.274;9.500;2023-04-25T00:44:22;6.60;99.90
15239;DHT22;7722;53.274;9.500;2023-04-25T00:46:50;6.60;99.90
15239;DHT22;7722;53.274;9.500;2023-04-25T00:49:18;6.60;99.90
15239;DHT22;7722;53.274;9.500;2023-04-25T00:51:45;6.60;99.90
15239;DHT22;7722;53.274;9.500;2023-04-25T00:54:12;6.70;99.90
15239;DHT22;7722;53.274;9.500;2023-04-25T00:56:40;6.60;99.90
15239;DHT22;7722;53.274;9.500;2023-04-25T00:59:09;6.60;99.90
15239;DHT22;7722;53.274;9.500;2023-04-25T01:01:36;6.50;99.90
15239;DHT22;7722;53.274;9.500;2023-04-25T01:04:05;6.50;99.90
15239;DHT22;7722;53.274;9.500;2023-04-25T01:06:33;6.50;99.90
15239;DHT22;7722;53.274;9.500;2023-04-25T01:09:00;6.60;99.90
15239;DHT22;7722;53.274;9.500;2023-04-25T01:11:28;6.60;99.90
15239;DHT22;7722;53.274;9.500;2023-04-25T01:13:55;6.60;99.90
15239;DHT22;7722;53.274;9.500;2023-04-25T01:16:23;6.60;99.90
15239;DHT22;7722;53.274;9.500;2023-04-25T01:18:50;6.50;99.90
15239;DHT22;7722;53.274;9.500;2023-04-25T01:21:19;6.50;99.90
15239;DHT22;7722;53.274;9.500;2023-04-25T01:23:46;6.40;99.90
15239;DHT22;7722;53.274;9.500;2023-04-25T01:26:13;6.50;99.90
15239;DHT22;7722;53.274;9.500;2023-04-25T01:28:41;6.50;99.90
15239;DHT22;7722;53.274;9.500;2023-04-25T01:31:08;6.50;99.90
15239;DHT22;7722;53.274;9.500;2023-04-25T01:33:35;6.40;99.90
15239;DHT22;7722;53.274;9.500;2023-04-25T01:36:03;6.30;99.90
15239;DHT22;7722;53.274;9.500;2023-04-25T01:38:32;6.40;99.90
15239;DHT22;7722;53.274;9.500;2023-04-25T01:40:59;6.40;99.90
15239;DHT22;7722;53.274;9.500;2023-04-25T01:43:26;6.30;99.90
15239;DHT22;7722;53.274;9.500;2023-04-25T01:45:54;6.20;99.90
15239;DHT22;7722;53.274;9.500;2023-04-25T01:48:21;6.20;99.90
15239;DHT22;7722;53.274;9.500;2023-04-25T01:50:49;6.20;99.90
15239;DHT22;7722;53.274;9.500;2023-04-25T01:53:16;6.20;99.90
15239;DHT22;7722;53.274;9.500;2023-04-25T01:55:44;6.20;99.90
15239;DHT22;7722;53.274;9.500;2023-04-25T01:58:11;6.10;99.90
15239;DHT22;7722;53.274;9.500;2023-04-25T02:00:38;6.10;99.90
15239;DHT22;7722;53.274;9.500;2023-04-25T02:03:06;6.00;99.90
15239;DHT22;7722;53.274;9.500;2023-04-25T02:05:35;6.00;99.90
15239;DHT22;7722;53.274;9.500;2023-04-25T02:08:04;5.90;99.90
15239;DHT22;7722;53.274;9.500;2023-04-25T02:10:32;5.70;99.90
15239;DHT22;7722;53.274;9.500;2023-04-25T02:13:01;5.60;99.90
15239;DHT22;7722;53.274;9.500;2023-04-25T02:15:28;5.60;99.90
15239;DHT22;7722;53.274;9.500;2023-04-25T02:17:55;5.60;99.90
15239;DHT22;7722;53.274;9.500;2023-04-25T02:20:23;5.60;99.90
15239;DHT22;7722;53.274;9.500;2023-04-25T02:22:50;5.60;99.90
15239;DHT22;7722;53.274;9.500;2023-04-25T02:25:18;5.70;99.90
15239;DHT22;7722;53.274;9.500;2023-04-25T02:27:46;5.60;99.90
15239;DHT22;7722;53.274;9.500;2023-04-25T02:30:14;5.70;99.90
15239;DHT22;7722;53.274;9.500;2023-04-25T02:32:41;5.70;99.90
15239;DHT22;7722;53.274;9.500;2023-04-25T02:35:09;5.70;99.90
15239;DHT22;7722;53.274;9.500;2023-04-25T02:37:38;5.70;99.90
15239;DHT22;7722;53.274;9.500;2023-04-25T02:40:06;5.60;99.90
15239;DHT22;7722;53.274;9.500;2023-04-25T02:42:34;5.60;99.90
15239;DHT22;7722;53.274;9.500;2023-04-25T02:45:01;5.60;99.90
15239;DHT22;7722;53.274;9.500;2023-04-25T02:47:30;5.60;99.90
15239;DHT22;7722;53.274;9.500;2023-04-25T02:49:57;5.60;99.90
15239;DHT22;7722;53.274;9.500;2023-04-25T02:52:24;5.60;99.90
15239;DHT22;7722;53.274;9.500;2023-04-25T02:54:51;5.70;99.90
15239;DHT22;7722;53.274;9.500;2023-04-25T02:57:18;5.70;99.90
15239;DHT22;7722;53.274;9.500;2023-04-25T02:59:45;5.70;99.90
15239;DHT22;7722;53.274;9.500;2023-04-25T03:02:12;5.70;99.90
15239;DHT22;7722;53.274;9.500;2023-04-25T03:04:40;5.70;99.90
15239;DHT22;7722;53.274;9.500;2023-04-25T03:07:07;5.60;99.90
15239;DHT22;7722;53.274;9.500;2023-04-25T03:09:35;5.60;99.90
15239;DHT22;7722;53.274;9.500;2023-04-25T03:12:02;5.50;99.90
15239;DHT22;7722;53.274;9.500;2023-04-25T03:14:29;5.40;99.90
15239;DHT22;7722;53.274;9.500;2023-04-25T03:16:56;5.30;99.90
15239;DHT22;7722;53.274;9.500;2023-04-25T03:19:23;5.20;99.90
15239;DHT22;7722;53.274;9.500;2023-04-25T03:21:51;5.20;99.90
15239;DHT22;7722;53.274;9.500;2023-04-25T03:24:19;5.20;99.90
15239;DHT22;7722;53.274;9.500;2023-04-25T03:26:46;5.20;99.90
15239;DHT22;7722;53.274;9.500;2023-04-25T03:29:13;5.20;99.90
15239;DHT22;7722;53.274;9.500;2023-04-25T03:31:40;5.20;99.90
15239;DHT22;7722;53.274;9.500;2023-04-25T03:34:07;5.20;99.90
15239;DHT22;7722;53.274;9.500;2023-04-25T03:36:34;5.20;99.90
15239;DHT22;7722;53.274;9.500;2023-04-25T03:39:02;5.20;99.90
15239;DHT22;7722;53.274;9.500;2023-04-25T03:41:29;5.10;99.90
15239;DHT22;7722;53.274;9.500;2023-04-25T03:43:56;5.10;99.90
15239;DHT22;7722;53.274;9.500;2023-04-25T03:46:23;5.10;99.90
15239;DHT22;7722;53.274;9.500;2023-04-25T03:48:50;5.10;99.90
15239;DHT22;7722;53.274;9.500;2023-04-25T03:51:17;5.00;99.90
15239;DHT22;7722;53.274;9.500;2023-04-25T03:53:44;4.90;99.90
15239;DHT22;7722;53.274;9.500;2023-04-25T03:56:13;4.80;99.90
15239;DHT22;7722;53.274;9.500;2023-04-25T03:58:41;4.80;99.90
15239;DHT22;7722;53.274;9.500;2023-04-25T04:01:08;4.80;99.90
15239;DHT22;7722;53.274;9.500;2023-04-25T04:03:36;4.90;99.90
15239;DHT22;7722;53.274;9.500;2023-04-25T04:06:03;4.90;99.90
15239;DHT22;7722;53.274;9.500;2023-04-25T04:08:31;4.90;99.90
15239;DHT22;7722;53.274;9.500;2023-04-25T04:10:58;4.90;99.90
15239;DHT22;7722;53.274;9.500;2023-04-25T04:13:27;4.90;99.90
15239;DHT22;7722;53.274;9.500;2023-04-25T04:15:54;4.90;99.90
15239;DHT22;7722;53.274;9.500;2023-04-25T04:18:22;4.90;99.90
15239;DHT22;7722;53.274;9.500;2023-04-25T04:20:49;5.00;99.90
15239;DHT22;7722;53.274;9.500;2023-04-25T04:23:16;4.90;99.90
15239;DHT22;7722;53.274;9.500;2023-04-25T04:25:43;4.80;99.90
15239;DHT22;7722;53.274;9.500;2023-04-25T04:28:10;4.80;99.90
15239;DHT22;7722;53.274;9.500;2023-04-25T04:30:40;4.70;99.90
15239;DHT22;7722;53.274;9.500;2023-04-25T04:33:08;4.70;99.90
15239;DHT22;7722;53.274;9.500;2023-04-25T04:35:35;4.70;99.90
15239;DHT22;7722;53.274;9.500;2023-04-25T04:38:02;4.60;99.90
15239;DHT22;7722;53.274;9.500;2023-04-25T04:40:29;4.60;99.90
15239;DHT22;7722;53.274;9.500;2023-04-25T04:42:57;4.60;99.90
15239;DHT22;7722;53.274;9.500;2023-04-25T04:45:24;4.60;99.90
15239;DHT22;7722;53.274;9.500;2023-04-25T04:47:54;4.60;99.90
15239;DHT22;7722;53.274;9.500;2023-04-25T04:50:22;4.60;99.90
15239;DHT22;7722;53.274;9.500;2023-04-25T04:52:49;4.70;99.90
15239;DHT22;7722;53.274;9.500;2023-04-25T04:55:16;4.80;99.90
15239;DHT22;7722;53.274;9.500;2023-04-25T04:57:43;4.80;99.90
15239;DHT22;7722;53.274;9.500;2023-04-25T05:00:12;4.90;99.90
15239;DHT22;7722;53.274;9.500;2023-04-25T05:02:39;4.90;99.90
15239;DHT22;7722;53.274;9.500;2023-04-25T05:05:08;4.90;99.90
15239;DHT22;7722;53.274;9.500;2023-04-25T05:07:36;5.00;99.90
15239;DHT22;7722;53.274;9.500;2023-04-25T05:10:03;4.90;99.90
15239;DHT22;7722;53.274;9.500;2023-04-25T05:12:30;5.00;99.90
15239;DHT22;7722;53.274;9.500;2023-04-25T05:14:57;4.90;99.90
15239;DHT22;7722;53.274;9.500;2023-04-25T05:17:24;4.90;99.90
15239;DHT22;7722;53.274;9.500;2023-04-25T05:19:52;5.00;99.90
15239;DHT22;7722;53.274;9.500;2023-04-25T05:22:20;4.90;99.90
15239;DHT22;7722;53.274;9.500;2023-04-25T05:24:47;5.00;99.90
15239;DHT22;7722;53.274;9.500;2023-04-25T05:27:16;5.00;99.90
15239;DHT22;7722;53.274;9.500;2023-04-25T05:29:43;5.10;99.90
15239;DHT22;7722;53.274;9.500;2023-04-25T05:32:10;5.10;99.90
15239;DHT22;7722;53.274;9.500;2023-04-25T05:34:37;5.10;99.90
15239;DHT22;7722;53.274;9.500;2023-04-25T05:37:05;5.30;99.90
15239;DHT22;7722;53.274;9.500;2023-04-25T05:39:33;5.30;99.90
15239;DHT22;7722;53.274;9.500;2023-04-25T05:42:00;5.40;99.90
15239;DHT22;7722;53.274;9.500;2023-04-25T05:44:29;5.40;99.90
15239;DHT22;7722;53.274;9.500;2023-04-25T05:46:56;5.50;99.90
15239;DHT22;7722;53.274;9.500;2023-04-25T05:49:23;5.60;99.90
15239;DHT22;7722;53.274;9.500;2023-04-25T05:51:50;5.60;99.90
15239;DHT22;7722;53.274;9.500;2023-04-25T05:54:17;5.70;99.90
15239;DHT22;7722;53.274;9.500;2023-04-25T05:56:46;5.60;99.90
15239;DHT22;7722;53.274;9.500;2023-04-25T05:59:13;5.50;99.90
15239;DHT22;7722;53.274;9.500;2023-04-25T06:01:40;5.60;99.90
15239;DHT22;7722;53.274;9.500;2023-04-25T06:04:07;5.60;99.90
15239;DHT22;7722;53.274;9.500;2023-04-25T06:06:34;5.70;99.90
15239;DHT22;7722;53.274;9.500;2023-04-25T06:09:01;5.70;99.90
15239;DHT22;7722;53.274;9.500;2023-04-25T06:11:29;5.70;99.90
15239;DHT22;7722;53.274;9.500;2023-04-25T06:13:57;5.80;99.90
15239;DHT22;7722;53.274;9.500;2023-04-25T06:16:24;5.80;99.90
15239;DHT22;7722;53.274;9.500;2023-04-25T06:18:52;5.70;99.90
15239;DHT22;7722;53.274;9.500;2023-04-25T06:21:19;5.70;99.90
15239;DHT22;7722;53.274;9.500;2023-04-25T06:23:46;5.60;99.90
15239;DHT22;7722;53.274;9.500;2023-04-25T06:26:13;5.50;99.90
15239;DHT22;7722;53.274;9.500;2023-04-25T06:28:40;5.40;99.90
15239;DHT22;7722;53.274;9.500;2023-04-25T06:31:09;5.40;99.90
15239;DHT22;7722;53.274;9.500;2023-04-25T06:33:36;5.30;99.90
15239;DHT22;7722;53.274;9.500;2023-04-25T06:36:03;5.40;99.90
15239;DHT22;7722;53.274;9.500;2023-04-25T06:38:31;5.50;99.90
15239;DHT22;7722;53.274;9.500;2023-04-25T06:40:59;5.70;99.90
15239;DHT22;7722;53.274;9.500;2023-04-25T06:43:26;5.90;99.90
15239;DHT22;7722;53.274;9.500;2023-04-25T06:45:53;6.10;99.90
15239;DHT22;7722;53.274;9.500;2023-04-25T06:48:22;6.10;99.90
15239;DHT22;7722;53.274;9.500;2023-04-25T06:50:50;6.20;99.90
15239;DHT22;7722;53.274;9.500;2023-04-25T06:53:17;6.40;99.90
15239;DHT22;7722;53.274;9.500;2023-04-25T06:55:44;6.50;99.90
15239;DHT22;7722;53.274;9.500;2023-04-25T06:58:11;6.60;99.90
15239;DHT22;7722;53.274;9.500;2023-04-25T07:00:38;6.40;99.90
15239;DHT22;7722;53.274;9.500;2023-04-25T07:03:05;5.90;99.90
15239;DHT22;7722;53.274;9.500;2023-04-25T07:05:34;5.60;99.90
15239;DHT22;7722;53.274;9.500;2023-04-25T07:08:01;5.30;99.90
15239;DHT22;7722;53.274;9.500;2023-04-25T07:10:28;5.10;99.90
15239;DHT22;7722;53.274;9.500;2023-04-25T07:12:55;5.10;99.90
15239;DHT22;7722;53.274;9.500;2023-04-25T07:15:22;5.30;99.90
15239;DHT22;7722;53.274;9.500;2023-04-25T07:17:49;5.40;99.90
15239;DHT22;7722;53.274;9.500;2023-04-25T07:20:17;5.30;99.90
15239;DHT22;7722;53.274;9.500;2023-04-25T07:22:46;5.40;99.90
15239;DHT22;7722;53.274;9.500;2023-04-25T07:25:13;5.40;99.90
15239;DHT22;7722;53.274;9.500;2023-04-25T07:27:40;5.40;99.90
15239;DHT22;7722;53.274;9.500;2023-04-25T07:30:09;5.50;99.90
15239;DHT22;7722;53.274;9.500;2023-04-25T07:32:36;5.60;99.90
15239;DHT22;7722;53.274;9.500;2023-04-25T07:35:04;5.80;99.90
15239;DHT22;7722;53.274;9.500;2023-04-25T07:37:32;6.00;99.90
15239;DHT22;7722;53.274;9.500;2023-04-25T07:40:01;6.20;99.90
15239;DHT22;7722;53.274;9.500;2023-04-25T07:42:31;6.30;99.90
15239;DHT22;7722;53.274;9.500;2023-04-25T07:44:59;6.50;99.90
15239;DHT22;7722;53.274;9.500;2023-04-25T07:47:27;6.40;99.90
15239;DHT22;7722;53.274;9.500;2023-04-25T07:49:54;6.30;99.90
15239;DHT22;7722;53.274;9.500;2023-04-25T07:52:21;6.50;99.90
15239;DHT22;7722;53.274;9.500;2023-04-25T07:54:48;6.70;99.90
15239;DHT22;7722;53.274;9.500;2023-04-25T07:57:17;6.80;99.90
15239;DHT22;7722;53.274;9.500;2023-04-25T07:59:45;7.20;99.90
15239;DHT22;7722;53.274;9.500;2023-04-25T08:02:12;7.70;99.90
15239;DHT22;7722;53.274;9.500;2023-04-25T08:04:39;8.00;99.90
15239;DHT22;7722;53.274;9.500;2023-04-25T08:07:06;8.10;99.90
15239;DHT22;7722;53.274;9.500;2023-04-25T08:09:33;8.20;99.90
15239;DHT22;7722;53.274;9.500;2023-04-25T08:12:02;7.60;99.90
15239;DHT22;7722;53.274;9.500;2023-04-25T08:14:31;7.60;99.90
15239;DHT22;7722;53.274;9.500;2023-04-25T08:17:01;7.50;99.90
15239;DHT22;7722;53.274;9.500;2023-04-25T08:19:29;7.30;99.90
15239;DHT22;7722;53.274;9.500;2023-04-25T08:21:56;7.40;99.90
15239;DHT22;7722;53.274;9.500;2023-04-25T08:24:23;7.30;99.90
15239;DHT22;7722;53.274;9.500;2023-04-25T08:26:50;6.80;99.90
15239;DHT22;7722;53.274;9.500;2023-04-25T08:29:17;5.80;99.90
15239;DHT22;7722;53.274;9.500;2023-04-25T08:31:46;5.40;99.90
15239;DHT22;7722;53.274;9.500;2023-04-25T08:34:13;5.00;99.90
15239;DHT22;7722;53.274;9.500;2023-04-25T08:36:40;5.00;99.90
15239;DHT22;7722;53.274;9.500;2023-04-25T08:39:07;5.00;99.90
15239;DHT22;7722;53.274;9.500;2023-04-25T08:41:36;5.20;99.90
15239;DHT22;7722;53.274;9.500;2023-04-25T08:44:05;5.40;99.90
15239;DHT22;7722;53.274;9.500;2023-04-25T08:46:33;5.50;99.90
15239;DHT22;7722;53.274;9.500;2023-04-25T08:49:02;5.80;99.90
15239;DHT22;7722;53.274;9.500;2023-04-25T08:51:32;6.00;99.90
15239;DHT22;7722;53.274;9.500;2023-04-25T08:54:08;6.20;99.90
15239;DHT22;7722;53.274;9.500;2023-04-25T08:56:36;6.40;99.90
15239;DHT22;7722;53.274;9.500;2023-04-25T08:59:03;6.50;99.90
15239;DHT22;7722;53.274;9.500;2023-04-25T09:01:33;6.80;99.90
15239;DHT22;7722;53.274;9.500;2023-04-25T09:04:02;7.00;99.90
15239;DHT22;7722;53.274;9.500;2023-04-25T09:06:29;7.00;99.90
15239;DHT22;7722;53.274;9.500;2023-04-25T09:09:04;7.20;99.90
15239;DHT22;7722;53.274;9.500;2023-04-25T09:11:32;7.40;99.90
15239;DHT22;7722;53.274;9.500;2023-04-25T09:14:12;7.70;99.90
15239;DHT22;7722;53.274;9.500;2023-04-25T09:17:00;8.20;99.90
15239;DHT22;7722;53.274;9.500;2023-04-25T09:19:30;8.30;99.90
15239;DHT22;7722;53.274;9.500;2023-04-25T09:22:00;8.60;99.90
15239;DHT22;7722;53.274;9.500;2023-04-25T09:24:32;8.50;99.90
15239;DHT22;7722;53.274;9.500;2023-04-25T09:26:59;9.10;99.90
15239;DHT22;7722;53.274;9.500;2023-04-25T09:29:30;9.30;99.90
15239;DHT22;7722;53.274;9.500;2023-04-25T09:32:14;9.10;99.90
15239;DHT22;7722;53.274;9.500;2023-04-25T09:34:44;9.60;99.90
15239;DHT22;7722;53.274;9.500;2023-04-25T09:37:17;9.70;99.90
15239;DHT22;7722;53.274;9.500;2023-04-25T09:39:45;9.40;99.90
15239;DHT22;7722;53.274;9.500;2023-04-25T09:42:13;9.30;99.90
15239;DHT22;7722;53.274;9.500;2023-04-25T09:44:43;8.70;99.90
15239;DHT22;7722;53.274;9.500;2023-04-25T09:47:11;7.40;99.90
15239;DHT22;7722;53.274;9.500;2023-04-25T09:49:40;6.00;99.90
15239;DHT22;7722;53.274;9.500;2023-04-25T09:52:13;5.90;99.90
15239;DHT22;7722;53.274;9.500;2023-04-25T09:54:41;5.80;99.90
15239;DHT22;7722;53.274;9.500;2023-04-25T09:57:11;5.90;99.90
15239;DHT22;7722;53.274;9.500;2023-04-25T09:59:43;6.00;99.90
15239;DHT22;7722;53.274;9.500;2023-04-25T10:02:13;6.20;99.90
15239;DHT22;7722;53.274;9.500;2023-04-25T10:04:41;6.20;99.90
15239;DHT22;7722;53.274;9.500;2023-04-25T10:07:10;6.50;99.90
15239;DHT22;7722;53.274;9.500;2023-04-25T10:09:39;7.00;99.90
15239;DHT22;7722;53.274;9.500;2023-04-25T10:12:07;7.20;99.90
15239;DHT22;7722;53.274;9.500;2023-04-25T10:14:34;7.70;99.90
15239;DHT22;7722;53.274;9.500;2023-04-25T10:17:02;8.20;99.90
15239;DHT22;7722;53.274;9.500;2023-04-25T10:19:29;8.40;99.90
15239;DHT22;7722;53.274;9.500;2023-04-25T10:22:04;8.70;99.90
15239;DHT22;7722;53.274;9.500;2023-04-25T10:24:34;9.00;99.90
15239;DHT22;7722;53.274;9.500;2023-04-25T10:27:03;9.60;99.90
15239;DHT22;7722;53.274;9.500;2023-04-25T10:29:31;9.90;99.90
15239;DHT22;7722;53.274;9.500;2023-04-25T10:31:58;9.50;99.90
15239;DHT22;7722;53.274;9.500;2023-04-25T10:34:38;9.20;99.90
15239;DHT22;7722;53.274;9.500;2023-04-25T10:37:05;9.30;99.90
15239;DHT22;7722;53.274;9.500;2023-04-25T10:39:38;9.20;99.90
15239;DHT22;7722;53.274;9.500;2023-04-25T10:42:05;9.30;99.90
15239;DHT22;7722;53.274;9.500;2023-04-25T10:44:33;9.30;99.90
15239;DHT22;7722;53.274;9.500;2023-04-25T10:47:02;9.70;99.90
15239;DHT22;7722;53.274;9.500;2023-04-25T10:49:33;9.90;99.90
15239;DHT22;7722;53.274;9.500;2023-04-25T10:52:25;10.00;99.90
15239;DHT22;7722;53.274;9.500;2023-04-25T10:54:55;9.70;99.30
15239;DHT22;7722;53.274;9.500;2023-04-25T10:57:30;9.50;99.20
15239;DHT22;7722;53.274;9.500;2023-04-25T11:00:01;9.60;99.50
15239;DHT22;7722;53.274;9.500;2023-04-25T11:02:32;9.30;99.50
15239;DHT22;7722;53.274;9.500;2023-04-25T11:05:03;8.60;99.90
15239;DHT22;7722;53.274;9.500;2023-04-25T11:07:37;7.90;99.90
15239;DHT22;7722;53.274;9.500;2023-04-25T11:10:06;7.80;99.90
15239;DHT22;7722;53.274;9.500;2023-04-25T11:12:34;7.80;99.90
15239;DHT22;7722;53.274;9.500;2023-04-25T11:15:05;8.00;99.90
15239;DHT22;7722;53.274;9.500;2023-04-25T11:17:33;8.30;99.90
15239;DHT22;7722;53.274;9.500;2023-04-25T11:20:00;8.30;99.90
15239;DHT22;7722;53.274;9.500;2023-04-25T11:22:28;8.50;99.90
15239;DHT22;7722;53.274;9.500;2023-04-25T11:24:55;8.80;99.90
15239;DHT22;7722;53.274;9.500;2023-04-25T11:27:23;9.20;99.90
15239;DHT22;7722;53.274;9.500;2023-04-25T11:29:51;8.90;99.90
15239;DHT22;7722;53.274;9.500;2023-04-25T11:32:19;9.00;99.90
15239;DHT22;7722;53.274;9.500;2023-04-25T11:34:46;9.40;99.90
15239;DHT22;7722;53.274;9.500;2023-04-25T11:37:14;9.90;99.90
15239;DHT22;7722;53.274;9.500;2023-04-25T11:39:44;10.20;99.90
15239;DHT22;7722;53.274;9.500;2023-04-25T11:42:12;11.00;99.90
15239;DHT22;7722;53.274;9.500;2023-04-25T11:44:41;11.60;99.10
15239;DHT22;7722;53.274;9.500;2023-04-25T11:47:08;11.40;96.80
15239;DHT22;7722;53.274;9.500;2023-04-25T11:49:35;11.60;96.90
15239;DHT22;7722;53.274;9.500;2023-04-25T11:52:03;11.30;95.50
15239;DHT22;7722;53.274;9.500;2023-04-25T11:54:35;10.70;95.70
15239;DHT22;7722;53.274;9.500;2023-04-25T11:57:02;9.90;98.30
15239;DHT22;7722;53.274;9.500;2023-04-25T11:59:30;9.60;98.70
15239;DHT22;7722;53.274;9.500;2023-04-25T12:01:58;9.70;99.40
15239;DHT22;7722;53.274;9.500;2023-04-25T12:04:30;9.40;96.90
15239;DHT22;7722;53.274;9.500;2023-04-25T12:06:58;9.20;97.60
15239;DHT22;7722;53.274;9.500;2023-04-25T12:09:30;9.30;98.50
15239;DHT22;7722;53.274;9.500;2023-04-25T12:12:00;10.00;97.60
15239;DHT22;7722;53.274;9.500;2023-04-25T12:14:30;10.10;95.00
15239;DHT22;7722;53.274;9.500;2023-04-25T12:17:00;10.60;95.10
15239;DHT22;7722;53.274;9.500;2023-04-25T12:19:32;10.80;93.90
15239;DHT22;7722;53.274;9.500;2023-04-25T12:22:00;10.40;93.70
15239;DHT22;7722;53.274;9.500;2023-04-25T12:24:28;10.30;94.20
15239;DHT22;7722;53.274;9.500;2023-04-25T12:27:00;10.10;94.50
15239;DHT22;7722;53.274;9.500;2023-04-25T12:29:28;10.00;96.30
15239;DHT22;7722;53.274;9.500;2023-04-25T12:31:56;8.80;99.30
15239;DHT22;7722;53.274;9.500;2023-04-25T12:34:24;7.90;99.90
15239;DHT22;7722;53.274;9.500;2023-04-25T12:36:52;7.50;99.90
15239;DHT22;7722;53.274;9.500;2023-04-25T12:39:20;7.20;99.90
15239;DHT22;7722;53.274;9.500;2023-04-25T12:41:48;6.80;99.90
15239;DHT22;7722;53.274;9.500;2023-04-25T12:44:15;6.90;99.90
15239;DHT22;7722;53.274;9.500;2023-04-25T12:46:43;6.80;99.90
15239;DHT22;7722;53.274;9.500;2023-04-25T12:49:10;6.80;99.90
15239;DHT22;7722;53.274;9.500;2023-04-25T12:51:39;7.00;99.90
15239;DHT22;7722;53.274;9.500;2023-04-25T12:54:07;7.40;99.90
15239;DHT22;7722;53.274;9.500;2023-04-25T12:56:35;7.60;99.90
15239;DHT22;7722;53.274;9.500;2023-04-25T12:59:02;8.00;99.90
15239;DHT22;7722;53.274;9.500;2023-04-25T13:01:30;8.20;99.90
15239;DHT22;7722;53.274;9.500;2023-04-25T13:03:57;8.60;99.90
15239;DHT22;7722;53.274;9.500;2023-04-25T13:06:24;9.50;99.90
15239;DHT22;7722;53.274;9.500;2023-04-25T13:08:53;10.00;98.50
15239;DHT22;7722;53.274;9.500;2023-04-25T13:11:20;10.30;95.00
15239;DHT22;7722;53.274;9.500;2023-04-25T13:13:47;10.60;93.40
15239;DHT22;7722;53.274;9.500;2023-04-25T13:16:14;10.60;93.50
15239;DHT22;7722;53.274;9.500;2023-04-25T13:18:41;10.70;92.60
15239;DHT22;7722;53.274;9.500;2023-04-25T13:21:09;11.00;91.30
15239;DHT22;7722;53.274;9.500;2023-04-25T13:23:37;10.90;90.00
15239;DHT22;7722;53.274;9.500;2023-04-25T13:26:06;11.30;89.90
15239;DHT22;7722;53.274;9.500;2023-04-25T13:28:33;11.20;90.70
15239;DHT22;7722;53.274;9.500;2023-04-25T13:31:00;11.20;88.90
15239;DHT22;7722;53.274;9.500;2023-04-25T13:33:27;10.40;90.10
15239;DHT22;7722;53.274;9.500;2023-04-25T13:35:54;9.90;91.90
15239;DHT22;7722;53.274;9.500;2023-04-25T13:38:23;9.90;93.80
15239;DHT22;7722;53.274;9.500;2023-04-25T13:40:50;10.30;95.10
15239;DHT22;7722;53.274;9.500;2023-04-25T13:43:21;10.90;94.00
15239;DHT22;7722;53.274;9.500;2023-04-25T13:45:49;10.90;93.00
15239;DHT22;7722;53.274;9.500;2023-04-25T13:48:16;11.50;94.00
15239;DHT22;7722;53.274;9.500;2023-04-25T13:50:43;12.00;92.50
15239;DHT22;7722;53.274;9.500;2023-04-25T13:53:11;12.40;92.50
15239;DHT22;7722;53.274;9.500;2023-04-25T13:55:38;11.90;91.50
15239;DHT22;7722;53.274;9.500;2023-04-25T13:58:05;12.70;93.20
15239;DHT22;7722;53.274;9.500;2023-04-25T14:00:35;12.10;91.20
15239;DHT22;7722;53.274;9.500;2023-04-25T14:03:04;11.30;90.20
15239;DHT22;7722;53.274;9.500;2023-04-25T14:05:33;11.30;90.50
15239;DHT22;7722;53.274;9.500;2023-04-25T14:08:05;11.30;90.30
15239;DHT22;7722;53.274;9.500;2023-04-25T14:10:32;11.30;90.10
15239;DHT22;7722;53.274;9.500;2023-04-25T14:13:00;11.40;90.40
15239;DHT22;7722;53.274;9.500;2023-04-25T14:15:29;11.50;90.20
15239;DHT22;7722;53.274;9.500;2023-04-25T14:17:57;10.90;91.00
15239;DHT22;7722;53.274;9.500;2023-04-25T14:20:24;10.20;91.30
15239;DHT22;7722;53.274;9.500;2023-04-25T14:22:52;10.10;91.60
15239;DHT22;7722;53.274;9.500;2023-04-25T14:25:20;10.40;92.50
15239;DHT22;7722;53.274;9.500;2023-04-25T14:27:47;11.20;91.70
15239;DHT22;7722;53.274;9.500;2023-04-25T14:30:15;11.90;90.70
15239;DHT22;7722;53.274;9.500;2023-04-25T14:32:42;12.20;87.90
15239;DHT22;7722;53.274;9.500;2023-04-25T14:35:12;11.20;89.10
15239;DHT22;7722;53.274;9.500;2023-04-25T14:37:39;10.40;91.10
15239;DHT22;7722;53.274;9.500;2023-04-25T14:40:07;10.00;91.30
15239;DHT22;7722;53.274;9.500;2023-04-25T14:42:36;10.30;90.70
15239;DHT22;7722;53.274;9.500;2023-04-25T14:45:03;10.80;89.50
15239;DHT22;7722;53.274;9.500;2023-04-25T14:47:30;10.20;86.70
15239;DHT22;7722;53.274;9.500;2023-04-25T14:49:57;9.60;89.50
15239;DHT22;7722;53.274;9.500;2023-04-25T14:52:25;9.40;91.10
15239;DHT22;7722;53.274;9.500;2023-04-25T14:54:52;10.10;91.10
15239;DHT22;7722;53.274;9.500;2023-04-25T14:57:19;11.00;90.40
15239;DHT22;7722;53.274;9.500;2023-04-25T14:59:46;11.60;88.70
15239;DHT22;7722;53.274;9.500;2023-04-25T15:02:14;10.80;87.60
15239;DHT22;7722;53.274;9.500;2023-04-25T15:04:41;10.30;90.20
15239;DHT22;7722;53.274;9.500;2023-04-25T15:07:08;10.60;90.80
15239;DHT22;7722;53.274;9.500;2023-04-25T15:09:37;10.80;89.40
15239;DHT22;7722;53.274;9.500;2023-04-25T15:12:04;10.90;90.20
15239;DHT22;7722;53.274;9.500;2023-04-25T15:14:31;10.60;89.00
15239;DHT22;7722;53.274;9.500;2023-04-25T15:16:59;10.90;87.70
15239;DHT22;7722;53.274;9.500;2023-04-25T15:19:26;10.80;86.90
15239;DHT22;7722;53.274;9.500;2023-04-25T15:21:53;11.20;88.20
15239;DHT22;7722;53.274;9.500;2023-04-25T15:24:21;11.60;88.80
15239;DHT22;7722;53.274;9.500;2023-04-25T15:26:49;11.50;89.40
15239;DHT22;7722;53.274;9.500;2023-04-25T15:29:17;11.50;89.20
15239;DHT22;7722;53.274;9.500;2023-04-25T15:31:44;11.60;88.00
15239;DHT22;7722;53.274;9.500;2023-04-25T15:34:11;11.10;86.30
15239;DHT22;7722;53.274;9.500;2023-04-25T15:36:38;11.20;83.80
15239;DHT22;7722;53.274;9.500;2023-04-25T15:39:05;11.50;81.60
15239;DHT22;7722;53.274;9.500;2023-04-25T15:41:32;11.70;81.40
15239;DHT22;7722;53.274;9.500;2023-04-25T15:44:01;11.80;82.90
15239;DHT22;7722;53.274;9.500;2023-04-25T15:46:28;11.70;79.40
15239;DHT22;7722;53.274;9.500;2023-04-25T15:48:56;11.90;79.70
15239;DHT22;7722;53.274;9.500;2023-04-25T15:51:23;11.80;80.50
15239;DHT22;7722;53.274;9.500;2023-04-25T15:53:51;11.60;82.90
15239;DHT22;7722;53.274;9.500;2023-04-25T15:56:19;11.60;85.80
15239;DHT22;7722;53.274;9.500;2023-04-25T15:58:46;11.20;87.80
15239;DHT22;7722;53.274;9.500;2023-04-25T16:01:14;11.10;87.80